createdAt,value
2023-06-11T00:03:59.696Z,7.00
2023-06-11T00:09:01.277Z,11.07
2023-06-11T00:14:02.843Z,10.15
2023-06-11T00:19:04.723Z,7.82
2023-06-11T00:24:06.397Z,8.45
2023-06-11T00:29:08.980Z,11.60
2023-06-11T00:34:10.582Z,9.65
2023-06-11T00:39:12.753Z,11.05
2023-06-11T00:44:15.179Z,8.15
2023-06-11T00:49:16.738Z,8.20
2023-06-11T00:54:18.295Z,9.68
2023-06-11T00:59:20.149Z,9.80
2023-06-11T01:04:22.448Z,7.57
2023-06-11T01:09:25.992Z,9.73
2023-06-11T01:14:27.620Z,11.40
2023-06-11T01:19:47.720Z,7.90
2023-06-11T01:24:55.347Z,8.95
2023-06-11T01:29:58.937Z,9.40
2023-06-11T01:35:02.415Z,9.63
2023-06-11T01:40:10.274Z,8.88
2023-06-11T01:45:22.520Z,9.60
2023-06-11T01:50:24.202Z,8.68
2023-06-11T01:55:25.896Z,10.45
2023-06-11T02:00:27.575Z,8.63
2023-06-11T02:05:29.159Z,8.90
2023-06-11T02:10:30.720Z,9.20
2023-06-11T02:22:00.246Z,9.23
2023-06-11T02:27:01.876Z,9.32
2023-06-11T02:32:05.315Z,9.27
2023-06-11T02:37:07.393Z,8.18
2023-06-11T02:42:09.463Z,7.63
2023-06-11T02:47:11.127Z,9.50
2023-06-11T02:52:12.722Z,9.25
2023-06-11T02:57:14.275Z,9.75
2023-06-11T03:02:15.894Z,13.73
2023-06-11T03:07:17.692Z,11.95
2023-06-11T03:12:19.605Z,12.52
2023-06-11T03:17:21.302Z,11.32
2023-06-11T03:22:23.026Z,12.27
2023-06-11T03:27:24.954Z,10.65
2023-06-11T03:32:26.701Z,13.82
2023-06-11T03:37:28.483Z,9.27
2023-06-11T03:42:33.423Z,12.02
2023-06-11T03:47:35.400Z,9.82
2023-06-11T03:52:37.652Z,10.20
2023-06-11T03:57:39.773Z,9.38
2023-06-11T04:02:41.613Z,11.25
2023-06-11T04:07:46.364Z,10.20
2023-06-11T04:12:48.148Z,10.93
2023-06-11T04:17:49.868Z,11.02
2023-06-11T04:22:52.328Z,10.38
2023-06-11T04:27:54.257Z,10.23
2023-06-11T04:32:57.211Z,9.30
2023-06-11T04:38:05.125Z,11.65
2023-06-11T04:43:07.439Z,13.50
2023-06-11T04:48:09.285Z,10.93
2023-06-11T04:53:10.991Z,12.52
2023-06-11T04:58:13.938Z,9.73
2023-06-11T05:03:16.627Z,9.73
2023-06-11T05:08:23.210Z,9.27
2023-06-11T05:13:25.859Z,10.60
2023-06-11T05:18:30.885Z,9.02
2023-06-11T05:23:36.049Z,8.43
2023-06-11T05:33:43.632Z,7.05
2023-06-11T05:38:45.310Z,5.90
2023-06-11T05:43:47.805Z,8.38
2023-06-11T05:48:50.540Z,8.63
2023-06-11T05:53:52.461Z,7.90
2023-06-11T05:58:55.872Z,6.35
2023-06-11T06:03:58.936Z,6.47
2023-06-11T06:09:01.587Z,6.93
2023-06-11T06:14:03.574Z,6.78
2023-06-11T06:19:05.563Z,7.18
2023-06-11T06:24:07.518Z,6.03
2023-06-11T06:29:09.526Z,7.15
2023-06-11T06:34:11.360Z,7.50
2023-06-11T06:39:13.241Z,6.43
2023-06-11T06:44:15.319Z,7.43
2023-06-11T06:49:17.108Z,8.85
2023-06-11T06:54:20.045Z,6.45
2023-06-11T06:59:24.838Z,7.22
2023-06-11T07:04:26.492Z,8.43
2023-06-11T07:09:28.134Z,5.85
2023-06-11T07:14:29.811Z,7.13
2023-06-11T07:19:31.704Z,6.00
2023-06-11T07:24:33.421Z,6.22
2023-06-11T07:29:35.232Z,5.95
2023-06-11T07:34:38.076Z,8.02
2023-06-11T07:39:40.001Z,6.97
2023-06-11T07:44:41.657Z,6.55
2023-06-11T07:49:43.459Z,6.30
2023-06-11T07:54:45.412Z,8.25
2023-06-11T07:59:47.152Z,6.43
2023-06-11T08:04:48.762Z,8.13
2023-06-11T08:09:50.448Z,5.28
2023-06-11T08:14:51.992Z,5.45
2023-06-11T08:19:53.638Z,6.43
2023-06-11T08:24:55.200Z,5.38
2023-06-11T08:29:56.930Z,9.43
2023-06-11T08:34:58.548Z,5.03
2023-06-11T08:40:00.273Z,5.80
2023-06-11T08:45:02.577Z,6.18
2023-06-11T08:50:04.680Z,5.18
2023-06-11T08:55:06.708Z,4.50
2023-06-11T09:00:09.014Z,5.38
2023-06-11T09:05:12.544Z,9.95
2023-06-11T09:10:14.590Z,6.93
2023-06-11T09:15:18.092Z,7.10
2023-06-11T09:20:22.233Z,5.03
2023-06-11T09:25:23.976Z,5.75
2023-06-11T09:30:25.732Z,6.38
2023-06-11T09:35:27.420Z,6.55
2023-06-11T09:40:35.060Z,5.90
2023-06-11T09:45:37.350Z,4.75
2023-06-11T09:50:39.248Z,6.03
2023-06-11T09:55:42.327Z,8.45
2023-06-11T10:00:53.281Z,5.70
2023-06-11T10:05:55.308Z,5.50
2023-06-11T10:11:01.576Z,5.85
2023-06-11T10:16:05.148Z,8.13
2023-06-11T10:21:06.825Z,5.83
2023-06-11T10:26:09.792Z,4.82
2023-06-11T10:31:11.571Z,7.05
2023-06-11T10:36:26.419Z,4.90
2023-06-11T10:41:29.608Z,7.43
2023-06-11T10:46:31.507Z,5.03
2023-06-11T10:51:40.306Z,5.40
2023-06-11T10:56:42.386Z,7.00
2023-06-11T11:01:44.200Z,4.85
2023-06-11T11:06:45.857Z,6.22
2023-06-11T11:11:47.578Z,6.63
2023-06-11T11:16:50.262Z,7.82
2023-06-11T11:21:52.770Z,5.18
2023-06-11T11:26:54.336Z,6.68
2023-06-11T11:31:56.973Z,7.15
2023-06-11T11:36:58.785Z,6.22
2023-06-11T11:42:03.071Z,6.13
2023-06-11T11:47:12.135Z,7.80
2023-06-11T11:52:13.719Z,5.05
2023-06-11T11:57:21.638Z,5.88
2023-06-11T12:02:27.361Z,7.15
2023-06-11T12:07:29.076Z,5.20
2023-06-11T12:12:30.793Z,7.57
2023-06-11T12:17:32.551Z,4.53
2023-06-11T12:22:34.135Z,6.80
2023-06-11T12:27:35.791Z,5.53
2023-06-11T12:32:37.395Z,6.95
2023-06-11T12:37:39.075Z,6.30
2023-06-11T12:42:41.047Z,7.05
2023-06-11T12:47:42.930Z,7.15
2023-06-11T12:52:44.620Z,5.03
2023-06-11T12:57:46.298Z,5.25
2023-06-11T13:02:48.065Z,5.60
2023-06-11T13:07:50.944Z,5.38
2023-06-11T13:12:55.599Z,6.43
2023-06-11T13:17:57.351Z,5.53
2023-06-11T13:22:59.020Z,4.65
2023-06-11T13:28:00.875Z,5.57
2023-06-11T13:33:02.527Z,6.63
2023-06-11T13:38:04.326Z,7.95
2023-06-11T13:43:06.012Z,8.25
2023-06-11T13:48:15.727Z,5.82
2023-06-11T13:53:18.471Z,5.85
2023-06-11T13:58:20.213Z,6.35
2023-06-11T14:03:23.038Z,9.60
2023-06-11T14:08:24.755Z,5.35
2023-06-11T14:13:26.827Z,5.88
2023-06-11T14:18:28.601Z,5.75
2023-06-11T14:23:30.286Z,6.35
2023-06-11T14:28:31.989Z,7.00
2023-06-11T14:33:33.670Z,5.28
2023-06-11T14:38:35.287Z,9.27
2023-06-11T14:43:37.073Z,6.85
2023-06-11T14:48:38.635Z,5.70
2023-06-11T14:53:40.315Z,6.68
2023-06-11T14:58:41.930Z,6.38
2023-06-11T15:03:43.619Z,7.15
2023-06-11T15:08:45.403Z,7.75
2023-06-11T15:13:46.962Z,5.88
2023-06-11T15:18:48.569Z,6.63
2023-06-11T15:23:50.251Z,6.93
2023-06-11T15:28:52.013Z,6.13
2023-06-11T15:33:53.800Z,6.82
2023-06-11T15:38:55.369Z,6.90
2023-06-11T15:43:59.952Z,7.70
2023-06-11T15:49:01.788Z,7.03
2023-06-11T15:54:04.185Z,7.00
2023-06-11T15:59:05.862Z,6.07
2023-06-11T16:04:07.563Z,8.23
2023-06-11T16:09:09.416Z,5.80
2023-06-11T16:14:11.005Z,6.78
2023-06-11T16:19:12.721Z,7.25
2023-06-11T16:24:14.449Z,5.97
2023-06-11T16:29:16.112Z,6.10
2023-06-11T16:34:17.881Z,5.80
2023-06-11T16:39:27.565Z,6.07
2023-06-11T16:44:30.182Z,7.30
2023-06-11T16:49:31.815Z,6.75
2023-06-11T16:54:33.731Z,5.18
2023-06-11T16:59:35.323Z,4.97
2023-06-11T17:04:36.928Z,6.97
2023-06-11T17:09:38.997Z,5.05
2023-06-11T17:14:40.650Z,8.63
2023-06-11T17:19:42.442Z,8.73
2023-06-11T17:24:44.055Z,5.45
2023-06-11T17:29:45.856Z,6.93
2023-06-11T17:34:47.640Z,6.38
2023-06-11T17:39:49.288Z,6.88
2023-06-11T17:44:51.361Z,5.60
2023-06-11T17:49:52.978Z,8.13
2023-06-11T17:54:54.532Z,6.07
2023-06-11T17:59:56.492Z,7.65
2023-06-11T18:04:58.107Z,5.70
2023-06-11T18:10:00.471Z,6.25
2023-06-11T18:15:10.880Z,5.40
2023-06-11T18:20:23.925Z,7.55
2023-06-11T18:25:25.740Z,8.18
2023-06-11T18:30:27.626Z,5.93
2023-06-11T18:35:29.287Z,5.47
2023-06-11T18:40:31.105Z,7.47
2023-06-11T18:45:32.874Z,5.78
2023-06-11T18:50:34.466Z,6.25
2023-06-11T18:55:36.061Z,8.02
2023-06-11T19:00:37.729Z,5.90
2023-06-11T19:05:40.242Z,4.93
2023-06-11T19:10:41.830Z,5.45
2023-06-11T19:15:46.045Z,5.15
2023-06-11T19:20:47.686Z,6.80
2023-06-11T19:25:49.323Z,7.78
2023-06-11T19:30:51.067Z,7.47
2023-06-11T19:35:52.913Z,6.93
2023-06-11T19:40:54.663Z,6.05
2023-06-11T19:45:56.200Z,5.93
2023-06-11T19:50:57.997Z,5.63
2023-06-11T19:55:59.568Z,6.78
2023-06-11T20:01:01.489Z,7.93
2023-06-11T20:06:03.100Z,7.00
2023-06-11T20:11:05.336Z,6.20
2023-06-11T20:16:07.053Z,6.32
2023-06-11T20:21:09.001Z,5.72
2023-06-11T20:26:11.076Z,8.23
2023-06-11T20:31:13.001Z,6.68
2023-06-11T20:36:14.636Z,5.90
2023-06-11T20:41:16.208Z,6.50
2023-06-11T20:46:29.076Z,7.55
2023-06-11T20:51:31.172Z,5.53
2023-06-11T20:56:32.782Z,5.90
2023-06-11T21:01:34.382Z,8.38
2023-06-11T21:06:36.502Z,7.30
2023-06-11T21:11:38.170Z,5.88
2023-06-11T21:16:39.810Z,9.90
2023-06-11T21:21:41.518Z,5.30
2023-06-11T21:26:43.143Z,5.47
2023-06-11T21:31:44.796Z,5.30
2023-06-11T21:36:46.573Z,7.72
2023-06-11T21:41:48.640Z,7.93
2023-06-11T21:46:51.181Z,5.60
2023-06-11T21:51:52.794Z,9.07
2023-06-11T21:56:54.418Z,4.85
2023-06-11T22:01:55.971Z,5.93
2023-06-11T22:06:57.538Z,5.55
2023-06-11T22:11:59.087Z,7.15
2023-06-11T22:17:00.716Z,8.40
2023-06-11T22:22:02.352Z,8.70
2023-06-11T22:27:05.874Z,6.22
2023-06-11T22:32:07.846Z,5.55
2023-06-11T22:37:09.526Z,6.43
2023-06-11T22:42:11.304Z,6.88
2023-06-11T22:47:12.918Z,7.53
2023-06-11T22:52:14.586Z,5.35
2023-06-11T22:57:16.465Z,6.90
2023-06-11T23:02:18.052Z,5.88
2023-06-11T23:07:19.658Z,6.88
2023-06-11T23:12:21.258Z,5.40
2023-06-11T23:17:23.044Z,5.82
2023-06-11T23:22:24.575Z,5.40
2023-06-11T23:27:26.173Z,6.60
2023-06-11T23:32:27.890Z,6.22
2023-06-11T23:37:29.804Z,7.10
2023-06-11T23:42:31.329Z,7.35
2023-06-11T23:47:32.935Z,7.03
2023-06-11T23:52:34.594Z,5.22
2023-06-11T23:57:38.256Z,5.63
